Terminal Aerodrome Forecast
Issued by NWS

Home | Current Version | Previous Version | Text Only | Print | Product List | Glossary On
Versions: 1 2 3 4 5 6 7 8 9 10 11 12 13 14 15 16 17 18 19 20 21 22 23
000
FTUS41 KBOX 222338
TAFHYA
TAF
KHYA 222338Z 2300/2324 05020G35KT 4SM -RA BR OVC004
     FM230500 06013G24KT 1SM +RA BR OVC003
     FM230900 07008KT 2SM +RA BR OVC003
     FM231000 07007KT 2SM -RA BR OVC003
     FM231500 07008KT 3SM -SHRA BR OVC010
     FM231800 04010G18KT 3SM -SHRA OVC008
     FM232100 03009KT 3SM -SHRA BR OVC010=

USA.gov is the U.S. government's official web portal to all federal, state and local government web resources and services.